Time;durP1;ratioP1;P1;durP2;ratioP2;P2;SDS_P1;SDS_P2;PMS_P1;PMS_P2;Temp;Humidity;BMP_temperature;BMP_pressure;BME280_temperature;BME280_humidity;BME280_pressure;Samples;Min_cycle;Max_cycle;Signal;HPM_P1;HPM_P2
2022/07/18 00:00:19;;;;;;;3.92;1.95;;;;;;;21.61;38.83;95357.38;4160228;28;20452;-50
2022/07/18 00:02:20;;;;;;;3.50;1.88;;;;;;;21.54;38.93;95357.41;4160948;28;20045;-53
2022/07/18 00:04:22;;;;;;;4.18;1.80;;;;;;;21.54;39.12;95361.94;4159198;28;20058;-52
2022/07/18 00:06:25;;;;;;;3.35;1.70;;;;;;;21.49;39.04;95359.91;4160690;28;20084;-53
2022/07/18 00:08:27;;;;;;;3.20;1.88;;;;;;;21.48;38.89;95363.59;4160785;28;20045;-56
2022/07/18 00:10:29;;;;;;;6.13;1.95;;;;;;;21.41;38.74;95370.78;4169782;28;20099;-54
2022/07/18 00:12:30;;;;;;;3.55;1.75;;;;;;;21.43;38.80;95363.41;4165629;28;20064;-53
2022/07/18 00:14:33;;;;;;;2.13;1.70;;;;;;;21.41;39.06;95363.63;4175177;28;20445;-53
2022/07/18 00:16:35;;;;;;;2.22;1.70;;;;;;;21.41;39.00;95366.28;4177709;28;20144;-54
2022/07/18 00:18:37;;;;;;;2.72;1.70;;;;;;;21.33;39.04;95363.00;4158959;28;20069;-55
2022/07/18 00:20:39;;;;;;;3.95;2.05;;;;;;;21.31;38.73;95362.38;4165457;28;20060;-53
2022/07/18 00:22:41;;;;;;;3.25;1.77;;;;;;;21.18;39.08;95363.25;4176777;28;20118;-55
2022/07/18 00:24:43;;;;;;;7.68;2.15;;;;;;;21.15;39.04;95363.69;4177027;28;20057;-53
2022/07/18 00:26:44;;;;;;;3.30;1.70;;;;;;;21.15;38.89;95361.81;4164184;28;20111;-53
2022/07/18 00:28:46;;;;;;;4.97;1.90;;;;;;;21.13;39.10;95353.22;4159808;28;20065;-51
2022/07/18 00:30:48;;;;;;;2.97;1.50;;;;;;;21.07;38.66;95365.50;4160019;28;20148;-52
2022/07/18 00:32:50;;;;;;;2.90;1.88;;;;;;;20.97;38.69;95359.81;4159002;28;20049;-54
2022/07/18 00:34:51;;;;;;;3.22;1.60;;;;;;;20.96;38.71;95360.03;4169576;28;20248;-52
2022/07/18 00:36:53;;;;;;;4.22;1.70;;;;;;;20.94;38.59;95357.56;4169090;28;20061;-53
2022/07/18 00:38:55;;;;;;;3.47;1.65;;;;;;;20.92;38.29;95351.63;4160511;28;20076;-53
2022/07/18 00:40:57;;;;;;;3.72;1.65;;;;;;;20.96;38.38;95357.34;4169609;28;20359;-50
2022/07/18 00:42:58;;;;;;;2.90;1.55;;;;;;;20.94;38.17;95354.88;4165502;28;20049;-52
2022/07/18 00:45:00;;;;;;;2.92;1.60;;;;;;;20.92;37.95;95356.13;4172392;28;20049;-53
2022/07/18 00:47:02;;;;;;;4.40;1.92;;;;;;;20.91;38.15;95351.81;4164337;28;20064;-53
2022/07/18 00:49:04;;;;;;;3.88;1.90;;;;;;;20.84;38.28;95354.50;4167945;28;20053;-52
2022/07/18 00:51:06;;;;;;;2.40;1.40;;;;;;;20.81;38.10;95360.25;4163001;28;20057;-52
2022/07/18 00:53:10;;;;;;;4.18;1.65;;;;;;;20.83;38.04;95361.66;4165180;28;20417;-52
2022/07/18 00:55:13;;;;;;;5.95;1.83;;;;;;;20.82;37.80;95357.38;4164160;28;20586;-52
2022/07/18 00:57:14;;;;;;;4.40;1.65;;;;;;;20.82;37.92;95360.03;4163091;28;20107;-52
2022/07/18 00:59:17;;;;;;;2.22;1.60;;;;;;;20.84;37.79;95360.66;4172306;28;20045;-51
2022/07/18 01:03:39;;;;;;;3.22;1.80;;;;;;;20.84;37.61;95367.81;4164077;28;20468;-54
2022/07/18 01:05:41;;;;;;;2.50;1.60;;;;;;;20.80;37.66;95369.25;4174822;28;20053;-50
2022/07/18 01:07:42;;;;;;;2.97;1.65;;;;;;;20.78;37.62;95365.97;4172121;28;20046;-54
2022/07/18 01:09:44;;;;;;;3.75;1.60;;;;;;;20.75;37.59;95364.53;4160105;28;20096;-54
2022/07/18 01:11:47;;;;;;;2.80;1.40;;;;;;;20.70;37.46;95359.03;4159430;28;20580;-54
2022/07/18 01:13:50;;;;;;;3.25;1.75;;;;;;;20.64;37.58;95358.00;4159553;28;20045;-53
2022/07/18 01:15:52;;;;;;;3.97;1.83;;;;;;;20.58;37.50;95360.66;4174844;28;20053;-55
2022/07/18 01:17:53;;;;;;;5.10;1.52;;;;;;;20.56;37.67;95357.34;4164215;28;20049;-54
2022/07/18 01:19:55;;;;;;;3.45;1.80;;;;;;;20.60;37.57;95356.75;4159831;28;20053;-53
2022/07/18 01:21:57;;;;;;;2.10;1.50;;;;;;;20.62;37.53;95354.72;4174436;28;20057;-54
2022/07/18 01:23:58;;;;;;;2.72;1.63;;;;;;;20.63;37.37;95351.03;4175252;28;20457;-51
2022/07/18 01:26:00;;;;;;;1.95;1.33;;;;;;;20.57;37.40;95357.19;4176432;28;20131;-53
2022/07/18 01:28:02;;;;;;;2.67;1.42;;;;;;;20.56;37.38;95360.00;4170096;28;20059;-51
2022/07/18 01:30:05;;;;;;;5.55;1.58;;;;;;;20.56;37.09;95354.69;4174506;28;20439;-55
2022/07/18 01:32:26;;;;;;;8.07;1.77;;;;;;;20.51;37.22;95359.81;4158942;28;20067;-52
2022/07/18 01:34:28;;;;;;;4.65;1.52;;;;;;;20.33;37.39;95358.59;4172638;28;20048;-50
2022/07/18 01:36:29;;;;;;;3.00;1.70;;;;;;;20.35;37.36;95348.56;4164332;28;20071;-52
2022/07/18 01:38:32;;;;;;;6.40;1.40;;;;;;;20.36;37.43;95350.19;4171921;28;20374;-51
2022/07/18 01:40:34;;;;;;;4.47;1.60;;;;;;;20.38;37.46;95356.13;4159440;28;20075;-52
2022/07/18 01:42:36;;;;;;;2.83;1.60;;;;;;;20.39;37.39;95352.44;4164630;28;20053;-51
2022/07/18 01:44:38;;;;;;;3.03;1.40;;;;;;;20.38;37.61;95350.78;4164890;28;20090;-53
2022/07/18 01:46:42;;;;;;;5.20;1.50;;;;;;;20.41;37.79;95350.41;4167036;28;20080;-49
2022/07/18 01:48:44;;;;;;;2.42;1.58;;;;;;;20.30;37.44;95350.19;4159687;28;20520;-54
2022/07/18 01:50:46;;;;;;;4.05;1.75;;;;;;;20.25;37.41;95345.47;4172789;28;20286;-52
2022/07/18 01:52:48;;;;;;;2.58;1.35;;;;;;;20.14;37.67;95341.56;4159150;28;20060;-54
2022/07/18 01:54:49;;;;;;;4.55;1.50;;;;;;;20.11;37.57;95339.31;4175279;28;20044;-50
2022/07/18 01:56:51;;;;;;;2.95;1.40;;;;;;;20.14;37.56;95336.25;4167736;28;20443;-52
2022/07/18 01:58:54;;;;;;;3.15;1.65;;;;;;;20.16;37.61;95339.53;4158467;28;20486;-51
2022/07/18 02:00:55;;;;;;;2.50;1.48;;;;;;;20.15;37.61;95339.72;4170246;28;20064;-52
2022/07/18 02:02:57;;;;;;;2.83;1.70;;;;;;;20.17;37.22;95345.66;4158944;28;20053;-53
2022/07/18 02:04:59;;;;;;;3.00;1.58;;;;;;;20.18;37.44;95337.50;4162168;28;20079;-53
2022/07/18 02:07:01;;;;;;;5.18;1.70;;;;;;;20.23;37.48;95344.84;4168182;28;20057;-54
2022/07/18 02:09:04;;;;;;;3.75;1.67;;;;;;;20.24;37.27;95336.69;4173935;28;20053;-55
2022/07/18 02:11:06;;;;;;;2.03;1.40;;;;;;;20.20;37.35;95339.94;4173589;28;20081;-53
2022/07/18 02:13:07;;;;;;;4.15;1.52;;;;;;;20.10;37.51;95344.84;4161476;28;20068;-54
2022/07/18 02:15:11;;;;;;;2.53;1.50;;;;;;;20.04;37.20;95343.81;4161702;28;20064;-55
2022/07/18 02:17:13;;;;;;;;;;;;;;;19.97;37.52;95340.31;4170492;28;20131;-54
2022/07/18 02:19:15;;;;;;;2.65;1.30;;;;;;;19.94;37.43;95357.50;4165710;28;20439;-54
2022/07/18 02:21:17;;;;;;;2.75;1.40;;;;;;;19.95;37.12;95345.03;4165591;28;20049;-54
2022/07/18 02:23:18;;;;;;;2.90;1.40;;;;;;;19.91;37.06;95349.09;4172320;28;20053;-54
2022/07/18 02:25:20;;;;;;;3.72;1.30;;;;;;;19.92;36.81;95348.91;4162128;28;20124;-53
2022/07/18 02:27:22;;;;;;;4.43;1.40;;;;;;;19.91;36.60;95351.75;4175121;28;20048;-54
2022/07/18 02:29:24;;;;;;;4.55;1.27;;;;;;;19.80;36.63;95347.84;4174783;28;20511;-53
2022/07/18 02:31:25;;;;;;;2.08;1.35;;;;;;;19.71;36.91;95355.19;4166249;28;20162;-53
2022/07/18 02:33:27;;;;;;;4.30;1.50;;;;;;;19.64;36.96;95355.13;4160560;28;20451;-52
2022/07/18 02:35:29;;;;;;;1.90;1.20;;;;;;;19.64;36.86;95360.44;4176718;28;20130;-61
2022/07/18 02:37:31;;;;;;;1.95;1.50;;;;;;;19.68;36.75;95358.22;4173242;28;20057;-53
2022/07/18 02:39:33;;;;;;;2.75;1.50;;;;;;;19.76;36.67;95359.91;4165201;28;20046;-52
2022/07/18 02:41:35;;;;;;;2.25;1.50;;;;;;;19.81;36.57;95374.25;4165300;28;20117;-54
2022/07/18 02:43:36;;;;;;;4.00;1.30;;;;;;;19.84;36.66;95375.66;4169775;28;20778;-54
2022/07/18 02:45:38;;;;;;;2.95;1.50;;;;;;;19.88;36.71;95376.09;4164313;28;20091;-56
2022/07/18 02:47:43;;;;;;;2.78;1.40;;;;;;;19.92;36.47;95372.00;4172489;28;20262;-52
2022/07/18 02:49:45;;;;;;;4.70;1.33;;;;;;;19.91;36.30;95376.50;4175325;28;20520;-54
2022/07/18 02:51:47;;;;;;;5.03;1.52;;;;;;;19.95;36.43;95371.59;4170359;28;20049;-55
2022/07/18 02:53:49;;;;;;;4.22;1.60;;;;;;;19.92;36.47;95375.50;4178473;28;20049;-54
2022/07/18 02:55:51;;;;;;;6.53;1.67;;;;;;;19.94;36.39;95378.78;4178276;28;20132;-55
2022/07/18 02:57:53;;;;;;;2.83;1.33;;;;;;;19.96;36.23;95379.41;4163586;28;20057;-55
2022/07/18 02:59:54;;;;;;;2.75;1.20;;;;;;;19.98;36.22;95371.19;4163666;28;20057;-56
2022/07/18 03:01:56;;;;;;;2.92;1.60;;;;;;;19.98;36.30;95374.69;4162241;28;20126;-54
2022/07/18 03:04:00;;;;;;;1.98;1.48;;;;;;;19.96;36.39;95374.06;4160066;28;20072;-55
2022/07/18 03:06:02;;;;;;;5.20;1.83;;;;;;;19.91;36.27;95386.31;4171779;28;20045;-53
2022/07/18 03:08:03;;;;;;;2.85;1.45;;;;;;;19.90;36.18;95384.69;4178163;28;20126;-54
2022/07/18 03:10:06;;;;;;;3.15;1.60;;;;;;;19.93;35.91;95385.09;4165325;28;20050;-54
2022/07/18 03:12:08;;;;;;;1.98;1.40;;;;;;;19.91;35.92;95384.47;4161540;28;20159;-57
2022/07/18 03:14:10;;;;;;;3.95;2.00;;;;;;;19.93;35.81;95377.13;4168662;28;20361;-54
2022/07/18 03:16:12;;;;;;;7.18;2.10;;;;;;;19.90;36.03;95385.50;4172922;28;20539;-54
2022/07/18 03:18:14;;;;;;;3.97;1.80;;;;;;;19.86;35.82;95380.78;4167027;28;20083;-56
2022/07/18 03:20:15;;;;;;;2.92;1.60;;;;;;;19.84;35.64;95389.78;4177402;28;20300;-51
2022/07/18 03:22:17;;;;;;;2.60;1.60;;;;;;;19.82;35.75;95385.69;4170116;28;20049;-54
2022/07/18 03:24:19;;;;;;;2.55;1.70;;;;;;;19.84;35.72;95391.63;4161853;28;20068;-53
2022/07/18 03:26:21;;;;;;;3.08;1.75;;;;;;;19.79;36.10;95386.09;4168632;28;20065;-53
2022/07/18 03:28:22;;;;;;;4.00;1.40;;;;;;;19.77;36.05;95393.44;4165698;28;20056;-52
2022/07/18 03:30:24;;;;;;;2.47;1.42;;;;;;;19.70;36.42;95381.94;4166323;28;20121;-53
2022/07/18 03:32:26;;;;;;;4.97;1.77;;;;;;;19.68;36.48;95387.47;4171305;28;20445;-55
2022/07/18 03:34:27;;;;;;;6.22;1.52;;;;;;;19.71;36.42;95388.91;4175852;28;20071;-54
2022/07/18 03:36:30;;;;;;;4.38;1.60;;;;;;;19.68;36.50;95383.97;4167714;28;20103;-49
2022/07/18 03:38:32;;;;;;;2.85;1.75;;;;;;;19.72;36.41;95380.72;4164767;28;20061;-52
2022/07/18 03:40:34;;;;;;;3.33;1.38;;;;;;;19.73;36.36;95384.22;4174304;28;20130;-52
2022/07/18 03:42:38;;;;;;;5.13;1.77;;;;;;;19.75;36.04;95383.00;4172409;28;20091;-52
2022/07/18 03:44:40;;;;;;;3.05;1.60;;;;;;;19.76;36.06;95383.81;4160304;28;20053;-50
2022/07/18 03:46:41;;;;;;;4.40;1.60;;;;;;;19.77;35.85;95385.47;4160245;28;20564;-52
2022/07/18 03:48:43;;;;;;;3.05;1.40;;;;;;;19.76;35.86;95395.25;4157891;28;20054;-54
2022/07/18 03:50:45;;;;;;;2.75;1.27;;;;;;;19.72;35.65;95388.69;4162676;28;20044;-55
2022/07/18 03:52:46;;;;;;;3.20;1.63;;;;;;;19.78;35.60;95393.22;4164935;28;20107;-54
2022/07/18 03:54:48;;;;;;;4.10;1.45;;;;;;;19.83;35.56;95388.16;4175221;28;20049;-53
2022/07/18 03:56:50;;;;;;;3.00;1.33;;;;;;;19.94;35.26;95392.06;4174904;28;20053;-53
2022/07/18 03:58:52;;;;;;;2.80;1.50;;;;;;;20.01;35.30;95381.44;4159797;28;20049;-52
2022/07/18 04:00:54;;;;;;;3.65;1.58;;;;;;;20.02;35.19;95388.38;4162646;28;20050;-55
2022/07/18 04:02:56;;;;;;;3.97;1.40;;;;;;;20.01;35.05;95387.56;4162476;28;20084;-54
2022/07/18 04:05:06;;;;;;;3.67;1.52;;;;;;;20.05;34.97;95386.16;4168399;28;20060;-51
2022/07/18 04:07:07;;;;;;;2.50;1.40;;;;;;;20.10;34.72;95396.19;4164130;28;20107;-59
2022/07/18 04:09:09;;;;;;;2.92;1.38;;;;;;;20.18;34.45;95397.84;4171539;28;20501;-56
2022/07/18 04:11:11;;;;;;;4.63;1.30;;;;;;;20.24;34.48;95397.03;4160079;28;20591;-54
2022/07/18 04:13:13;;;;;;;6.20;1.60;;;;;;;20.29;34.25;95389.28;4171333;28;20537;-55
2022/07/18 04:15:15;;;;;;;2.70;1.27;;;;;;;20.35;33.85;95391.13;4161649;28;20150;-55
2022/07/18 04:17:17;;;;;;;2.78;1.30;;;;;;;20.41;33.78;95392.97;4166024;28;20041;-54
2022/07/18 04:19:19;;;;;;;5.03;1.38;;;;;;;20.40;33.66;95394.00;4174666;28;20049;-53
2022/07/18 04:21:20;;;;;;;3.28;1.30;;;;;;;20.43;33.75;95395.41;4170215;28;20053;-52
2022/07/18 04:23:22;;;;;;;2.33;1.40;;;;;;;20.54;33.83;95399.31;4113211;28;1687722;-51
2022/07/18 04:25:28;;;;;;;7.68;1.58;;;;;;;20.63;33.60;95395.47;4160010;28;20053;-53
2022/07/18 04:27:30;;;;;;;4.43;1.40;;;;;;;20.65;33.72;95391.59;4167680;28;20049;-53
2022/07/18 04:29:32;;;;;;;2.85;1.48;;;;;;;20.68;33.83;95390.34;4166491;28;20056;-51
2022/07/18 04:31:34;;;;;;;3.35;1.70;;;;;;;20.71;33.78;95384.59;4163532;28;20143;-54
2022/07/18 04:33:36;;;;;;;5.15;1.80;;;;;;;20.80;33.84;95380.72;4170287;28;20128;-53
2022/07/18 04:35:39;;;;;;;2.42;1.40;;;;;;;20.83;33.70;95380.31;4170582;28;20118;-53
2022/07/18 04:37:41;;;;;;;3.78;1.30;;;;;;;20.75;33.64;95380.50;4165497;28;20049;-51
2022/07/18 04:39:43;;;;;;;5.32;1.60;;;;;;;20.77;34.12;95375.00;4165043;28;20057;-54
2022/07/18 04:41:44;;;;;;;7.30;1.70;;;;;;;20.87;34.16;95380.72;4164607;28;20479;-54
2022/07/18 04:43:46;;;;;;;3.80;1.55;;;;;;;20.97;34.19;95385.63;4163829;28;20541;-52
2022/07/18 04:45:48;;;;;;;5.20;1.77;;;;;;;20.97;33.75;95383.78;4159616;28;20490;-54
2022/07/18 04:47:50;;;;;;;4.30;1.60;;;;;;;21.02;33.61;95380.50;4160985;28;20494;-54
2022/07/18 04:49:52;;;;;;;4.32;1.40;;;;;;;21.05;33.77;95375.56;4174468;28;20053;-54
2022/07/18 04:51:54;;;;;;;3.45;1.35;;;;;;;21.15;33.77;95374.34;4167903;28;20111;-52
2022/07/18 04:53:56;;;;;;;3.58;1.50;;;;;;;21.21;33.65;95376.16;4168643;28;20049;-52
2022/07/18 04:55:57;;;;;;;5.50;1.70;;;;;;;21.23;33.96;95372.25;4171856;28;20060;-53
2022/07/18 04:57:59;;;;;;;4.95;1.70;;;;;;;21.27;34.28;95376.16;4162706;28;20064;-54
2022/07/18 05:00:05;;;;;;;5.22;1.73;;;;;;;21.35;34.17;95371.59;4162735;28;20111;-55
2022/07/18 05:02:07;;;;;;;5.22;1.70;;;;;;;21.44;34.17;95375.69;4164063;28;20045;-53
2022/07/18 05:04:09;;;;;;;7.38;1.35;;;;;;;21.50;34.20;95374.06;4168339;28;20048;-58
2022/07/18 05:06:11;;;;;;;6.18;2.10;;;;;;;21.44;34.24;95375.69;4173902;28;20133;-53
2022/07/18 05:08:13;;;;;;;4.65;1.80;;;;;;;21.23;33.97;95379.41;4162042;28;20421;-56
2022/07/18 05:10:17;;;;;;;3.63;1.73;;;;;;;20.77;34.00;95378.47;4161426;28;20041;-55
2022/07/18 05:12:23;;;;;;;7.20;1.80;;;;;;;20.75;33.76;95374.38;4166662;28;20075;-55
2022/07/18 05:14:25;;;;;;;5.18;1.63;;;;;;;20.76;33.64;95378.69;4176236;28;20736;-57
2022/07/18 05:16:26;;;;;;;3.35;1.27;;;;;;;20.93;33.03;95374.56;4166607;28;20498;-54
2022/07/18 05:18:28;;;;;;;4.80;1.63;;;;;;;21.11;32.75;95373.91;4167584;28;20504;-54
2022/07/18 05:20:30;;;;;;;6.55;1.80;;;;;;;21.11;33.02;95384.56;4169513;28;20045;-53
2022/07/18 05:22:33;;;;;;;2.88;1.30;;;;;;;21.23;32.70;95377.59;4169114;28;20131;-55
2022/07/18 05:24:35;;;;;;;5.00;2.10;;;;;;;20.84;33.70;95373.97;4165804;28;20470;-53
2022/07/18 05:26:36;;;;;;;5.82;1.42;;;;;;;20.37;34.47;95380.25;4165643;28;20049;-51
2022/07/18 05:28:38;;;;;;;8.18;1.67;;;;;;;20.16;35.23;95378.63;4165517;28;20053;-51
2022/07/18 05:30:41;;;;;;;2.83;1.30;;;;;;;20.07;35.59;95378.00;4165625;28;20132;-54
2022/07/18 05:32:44;;;;;;;7.72;1.73;;;;;;;19.93;36.06;95385.09;4172026;28;20110;-52
2022/07/18 05:34:45;;;;;;;3.65;1.50;;;;;;;19.76;35.50;95387.28;4162011;28;20045;-52
2022/07/18 05:36:47;;;;;;;7.20;1.85;;;;;;;19.95;35.56;95377.75;4170043;28;20048;-53
2022/07/18 05:38:49;;;;;;;6.95;1.60;;;;;;;19.86;35.50;95389.59;4161036;28;20107;-52
2022/07/18 05:40:50;;;;;;;3.90;1.45;;;;;;;19.60;35.94;95391.09;4175725;28;20557;-51
2022/07/18 05:42:52;;;;;;;4.82;2.00;;;;;;;19.76;36.23;95389.13;4167997;28;20064;-52
2022/07/18 05:44:56;;;;;;;5.70;1.55;;;;;;;20.09;35.55;95388.41;4161328;28;20070;-54
2022/07/18 05:46:57;;;;;;;5.65;2.03;;;;;;;19.92;35.90;95388.78;4171906;28;20467;-52
2022/07/18 05:48:59;;;;;;;3.25;1.50;;;;;;;19.87;36.08;95393.88;4171987;28;20406;-55
2022/07/18 05:51:01;;;;;;;7.20;1.70;;;;;;;19.61;35.94;95402.53;4160920;28;20509;-52
2022/07/18 05:53:03;;;;;;;5.60;1.52;;;;;;;19.51;36.01;95392.28;4158239;28;20041;-53
2022/07/18 05:55:05;;;;;;;1.83;1.30;;;;;;;19.76;35.97;95389.94;4159052;28;20041;-55
2022/07/18 05:57:07;;;;;;;2.80;1.48;;;;;;;19.93;36.14;95397.56;4169693;28;20068;-53
2022/07/18 05:59:09;;;;;;;4.78;1.50;;;;;;;20.19;36.06;95394.16;4175400;28;20398;-51
2022/07/18 06:01:11;;;;;;;4.53;1.88;;;;;;;20.48;34.83;95390.31;4160457;28;20523;-54
2022/07/18 06:03:13;;;;;;;2.75;1.30;;;;;;;20.29;34.07;95393.78;4161991;28;20106;-52
2022/07/18 06:05:15;;;;;;;5.03;1.60;;;;;;;20.33;34.11;95398.50;4174986;28;20486;-55
2022/07/18 06:07:26;;;;;;;2.33;1.40;;;;;;;20.68;33.01;95390.34;4158847;28;20048;-53
2022/07/18 06:09:31;;;;;;;2.42;1.33;;;;;;;20.80;33.07;95391.38;4163812;28;20060;-53
2022/07/18 06:11:32;;;;;;;9.15;2.35;;;;;;;20.80;32.30;95390.53;4167347;28;20053;-54
2022/07/18 06:13:36;;;;;;;4.18;2.05;;;;;;;20.89;32.35;95393.81;4168151;28;20139;-55
2022/07/18 06:15:38;;;;;;;3.22;1.35;;;;;;;20.92;32.70;95388.09;4169736;28;20079;-49
2022/07/18 06:17:40;;;;;;;3.60;1.70;;;;;;;21.12;32.83;95391.53;4161561;28;20062;-55
2022/07/18 06:19:42;;;;;;;3.95;2.03;;;;;;;21.12;32.56;95394.19;4165579;28;20424;-54
2022/07/18 06:21:43;;;;;;;4.90;2.45;;;;;;;21.36;32.34;95392.72;4165250;28;20422;-51
2022/07/18 06:23:45;;;;;;;8.15;2.15;;;;;;;21.59;31.76;95388.78;4170671;28;20053;-53
2022/07/18 06:25:47;;;;;;;4.65;1.80;;;;;;;21.75;31.25;95384.84;4173073;28;20126;-51
2022/07/18 06:27:49;;;;;;;4.13;1.92;;;;;;;21.82;30.45;95382.94;4174404;28;20053;-54
2022/07/18 06:29:50;;;;;;;3.17;1.27;;;;;;;21.48;30.14;95391.06;4173508;28;20087;-51
2022/07/18 06:31:52;;;;;;;4.40;1.10;;;;;;;21.31;30.96;95384.53;4160789;28;20407;-50
2022/07/18 06:33:54;;;;;;;1.88;1.02;;;;;;;21.48;30.45;95375.06;4173758;28;20045;-51
2022/07/18 06:36:03;;;;;;;4.75;1.20;;;;;;;21.67;30.37;95373.34;4174374;28;20409;-53
2022/07/18 06:38:05;;;;;;;2.20;1.20;;;;;;;21.46;30.35;95377.13;4167445;28;20060;-55
2022/07/18 06:40:07;;;;;;;4.93;1.58;;;;;;;21.50;30.12;95374.88;4169772;28;20049;-55
2022/07/18 06:42:09;;;;;;;4.28;1.35;;;;;;;21.55;30.07;95369.72;4159955;28;20049;-51
2022/07/18 06:44:11;;;;;;;7.75;1.77;;;;;;;21.75;30.36;95371.50;4159588;28;20052;-50
2022/07/18 06:46:13;;;;;;;4.20;1.38;;;;;;;22.03;30.56;95366.63;4172907;28;20079;-53
2022/07/18 06:48:16;;;;;;;6.47;1.75;;;;;;;22.36;29.83;95368.28;4167216;28;20347;-53
2022/07/18 06:50:17;;;;;;;9.07;1.85;;;;;;;22.26;29.91;95367.94;4171549;28;20053;-54
2022/07/18 06:52:20;;;;;;;5.63;1.90;;;;;;;22.37;30.10;95369.94;4158577;28;20041;-55
2022/07/18 06:54:27;;;;;;;3.93;1.60;;;;;;;22.40;28.99;95366.81;4165921;28;20071;-56
2022/07/18 06:56:29;;;;;;;2.72;1.20;;;;;;;22.51;28.70;95364.50;4167860;28;20340;-52
2022/07/18 06:58:31;;;;;;;5.18;1.73;;;;;;;22.51;29.08;95349.28;4163090;28;20140;-53
2022/07/18 07:00:32;;;;;;;5.25;1.60;;;;;;;22.62;28.87;95356.59;4159006;28;20454;-53
2022/07/18 07:02:40;;;;;;;4.00;1.58;;;;;;;22.80;28.93;95350.50;4166686;28;20072;-55
2022/07/18 07:04:41;;;;;;;4.60;1.70;;;;;;;22.90;28.75;95356.13;4160065;28;20107;-55
2022/07/18 07:06:43;;;;;;;2.50;1.30;;;;;;;23.08;28.62;95359.88;4160135;28;20127;-50
2022/07/18 07:08:45;;;;;;;2.65;1.42;;;;;;;23.23;28.35;95351.53;4169039;28;20107;-54
2022/07/18 07:10:46;;;;;;;6.40;2.03;;;;;;;23.25;27.87;95350.28;4158441;28;20569;-52
2022/07/18 07:12:50;;;;;;;3.28;1.88;;;;;;;23.22;28.32;95356.06;4161182;28;20049;-55
2022/07/18 07:14:52;;;;;;;2.50;1.52;;;;;;;23.22;28.37;95353.38;4157737;28;20123;-55
2022/07/18 07:16:54;;;;;;;2.78;1.48;;;;;;;23.20;28.16;95355.47;4171731;28;20045;-56
2022/07/18 07:18:55;;;;;;;4.18;1.55;;;;;;;23.14;28.42;95351.00;4164278;28;20152;-59
2022/07/18 07:20:57;;;;;;;2.05;1.30;;;;;;;23.19;28.18;95355.66;4161409;28;20049;-54
2022/07/18 07:23:04;;;;;;;2.55;1.20;;;;;;;23.28;27.57;95355.16;4160848;28;20046;-54
2022/07/18 07:25:06;;;;;;;3.03;1.55;;;;;;;;;;4170571;28;20155;-53
2022/07/18 07:27:08;;;;;;;2.40;1.40;;;;;;;23.45;27.54;95354.59;4174354;28;20049;-56
2022/07/18 07:29:10;;;;;;;4.32;1.40;;;;;;;23.56;27.54;95348.47;4164052;28;20057;-55
2022/07/18 07:31:11;;;;;;;6.03;1.45;;;;;;;23.52;27.74;95349.97;4166889;28;20563;-53
2022/07/18 07:33:13;;;;;;;4.45;1.60;;;;;;;22.65;28.58;95349.97;4174130;28;20143;-54
2022/07/18 07:35:18;;;;;;;7.57;2.30;;;;;;;22.73;28.76;95356.91;4176573;28;20059;-54
2022/07/18 07:37:19;;;;;;;8.30;3.10;;;;;;;22.84;28.22;95349.00;4172100;28;20045;-51
2022/07/18 07:39:21;;;;;;;3.95;1.63;;;;;;;22.91;27.95;95354.28;4168564;28;20045;-56
2022/07/18 07:41:23;;;;;;;2.85;1.60;;;;;;;23.07;27.85;95352.94;4163038;28;20111;-52
2022/07/18 07:43:25;;;;;;;9.52;2.53;;;;;;;22.94;27.16;95347.69;4173979;28;20045;-52
2022/07/18 07:45:26;;;;;;;5.43;1.77;;;;;;;22.93;27.98;95346.88;4171583;28;20151;-51
2022/07/18 07:47:31;;;;;;;4.35;1.30;;;;;;;23.06;27.76;95348.63;4168104;28;20137;-52
2022/07/18 07:49:34;;;;;;;3.30;1.00;;;;;;;22.95;26.39;95354.66;4167211;28;20061;-55
2022/07/18 07:51:36;;;;;;;2.80;1.60;;;;;;;22.88;26.56;95354.72;4175926;28;20056;-54
2022/07/18 07:53:38;;;;;;;2.65;1.15;;;;;;;22.82;26.45;95353.75;4166190;28;20261;-53
2022/07/18 07:55:40;;;;;;;2.53;1.25;;;;;;;23.13;26.51;95357.41;4165018;28;20047;-55
2022/07/18 07:57:42;;;;;;;3.17;1.23;;;;;;;23.22;25.61;95358.72;4160764;28;20050;-55
2022/07/18 07:59:43;;;;;;;2.30;1.30;;;;;;;23.24;25.99;95361.19;4160716;28;20052;-55
2022/07/18 08:01:45;;;;;;;6.35;1.40;;;;;;;23.27;26.11;95356.22;4160833;28;20053;-52
2022/07/18 08:03:48;;;;;;;2.00;1.20;;;;;;;23.42;26.35;95358.50;4166693;28;20458;-55
2022/07/18 08:05:50;;;;;;;3.25;1.30;;;;;;;23.63;25.67;95359.91;4176079;28;20045;-55
2022/07/18 08:07:52;;;;;;;2.22;1.33;;;;;;;23.57;25.58;95358.13;4166483;28;20107;-53
2022/07/18 08:09:54;;;;;;;2.70;1.40;;;;;;;23.48;25.58;95359.47;4171454;28;20473;-55
2022/07/18 08:11:56;;;;;;;3.88;1.20;;;;;;;23.17;25.11;95363.94;4177188;28;20496;-55
2022/07/18 08:13:57;;;;;;;1.88;1.10;;;;;;;23.22;25.18;95363.25;4168830;28;20064;-56
2022/07/18 08:15:59;;;;;;;3.28;1.33;;;;;;;23.55;25.69;95354.03;4165353;28;20064;-54
2022/07/18 08:18:01;;;;;;;1.85;1.10;;;;;;;23.85;25.19;95348.75;4165818;28;20133;-55
2022/07/18 08:20:03;;;;;;;2.83;1.17;;;;;;;24.17;24.97;95348.53;4160568;28;20041;-55
2022/07/18 08:22:06;;;;;;;5.38;1.25;;;;;;;24.36;24.95;95352.78;4171771;28;20536;-57
2022/07/18 08:24:07;;;;;;;4.15;1.70;;;;;;;24.41;25.03;95358.25;4163206;28;20049;-56
2022/07/18 08:26:09;;;;;;;3.92;1.30;;;;;;;24.02;24.75;95365.00;4160678;28;20319;-54
2022/07/18 08:28:12;;;;;;;2.83;1.33;;;;;;;23.72;24.87;95360.41;4164356;28;20049;-54
2022/07/18 08:30:14;;;;;;;2.05;1.20;;;;;;;23.55;25.18;95362.06;4172945;28;20049;-52
2022/07/18 08:32:16;;;;;;;2.92;1.42;;;;;;;23.41;25.26;95361.41;4160546;28;20465;-54
2022/07/18 08:34:18;;;;;;;4.20;1.33;;;;;;;23.52;24.91;95363.34;4169654;28;20127;-53
2022/07/18 08:36:20;;;;;;;2.92;1.50;;;;;;;23.60;24.75;95367.59;4165306;28;20366;-55
2022/07/18 08:38:22;;;;;;;7.80;1.33;;;;;;;23.73;24.67;95363.94;4162248;28;20103;-52
2022/07/18 08:40:24;;;;;;;1.98;1.20;;;;;;;23.86;24.40;95358.44;4167509;28;20052;-53
2022/07/18 08:42:26;;;;;;;2.63;1.35;;;;;;;24.09;24.97;95355.00;4169624;28;20103;-55
2022/07/18 08:44:28;;;;;;;3.10;1.23;;;;;;;24.29;24.65;95350.19;4165445;28;20473;-53
2022/07/18 08:46:31;;;;;;;6.95;1.70;;;;;;;24.56;24.64;95355.16;4176864;28;20278;-54
2022/07/18 08:48:33;;;;;;;3.03;1.40;;;;;;;24.71;24.19;95344.81;4175429;28;20045;-53
2022/07/18 08:50:35;;;;;;;5.35;1.40;;;;;;;24.96;24.24;95353.72;4170165;28;20053;-53
2022/07/18 08:52:38;;;;;;;4.78;1.42;;;;;;;24.92;24.83;95353.34;4170615;28;20055;-55
2022/07/18 08:54:58;;;;;;;2.70;1.40;;;;;;;24.61;26.14;95347.28;4175069;28;20053;-54
2022/07/18 08:57:00;;;;;;;6.25;1.58;;;;;;;24.93;26.15;95352.31;4171869;28;20049;-52
2022/07/18 08:59:03;;;;;;;2.10;1.27;;;;;;;24.79;26.31;95349.03;4159640;28;20118;-55
2022/07/18 09:01:05;;;;;;;2.83;1.48;;;;;;;24.52;26.52;95344.13;4169944;28;20209;-54
2022/07/18 09:03:07;;;;;;;2.58;1.30;;;;;;;24.36;26.81;95351.97;4162762;28;20046;-53
2022/07/18 09:05:18;;;;;;;3.03;1.25;;;;;;;24.70;26.78;95342.38;4174817;28;20057;-52
2022/07/18 09:07:34;;;;;;;1.60;1.08;;;;;;;24.78;27.13;95341.22;4175550;28;20102;-53
2022/07/18 09:09:37;;;;;;;2.63;1.42;;;;;;;25.04;27.03;95346.13;4167175;28;20103;-54
2022/07/18 09:11:53;;;;;;;3.85;1.27;;;;;;;25.25;26.56;95341.22;4162604;28;20061;-57
2022/07/18 09:13:54;;;;;;;2.78;1.38;;;;;;;25.33;26.45;95341.69;4162267;28;20063;-55
2022/07/18 09:16:08;;;;;;;3.85;1.67;;;;;;;24.44;27.35;95340.94;4171465;28;20361;-55
2022/07/18 09:18:10;;;;;;;8.20;1.60;;;;;;;24.11;27.90;95348.41;4167355;28;20478;-51
2022/07/18 09:20:32;;;;;;;7.53;1.35;;;;;;;23.98;28.16;95350.44;4160908;28;20060;-54
2022/07/18 09:22:35;;;;;;;4.45;1.30;;;;;;;23.90;29.08;95356.94;4170059;28;20045;-54
2022/07/18 09:24:57;;;;;;;2.83;1.70;;;;;;;23.76;29.95;95355.47;4159698;28;20069;-54
2022/07/18 09:26:58;;;;;;;4.25;1.83;;;;;;;23.93;29.37;95353.81;4160084;28;20136;-55
2022/07/18 09:29:01;;;;;;;2.65;1.23;;;;;;;24.32;29.10;95344.38;4162740;28;20084;-54
2022/07/18 09:31:25;;;;;;;3.53;1.50;;;;;;;24.82;28.15;95347.75;4167550;28;20622;-56
2022/07/18 09:33:27;;;;;;;3.97;1.10;;;;;;;25.12;27.23;95347.63;4158204;28;20045;-54
2022/07/18 09:35:33;;;;;;;2.65;1.20;;;;;;;25.29;27.10;95339.72;4168920;28;20051;-55
2022/07/18 09:37:35;;;;;;;3.15;1.40;;;;;;;25.45;27.30;95332.81;4159851;28;20140;-55
2022/07/18 09:39:37;;;;;;;6.07;1.58;;;;;;;25.63;27.15;95338.00;4165646;28;20053;-54